Date,TemperatureHighF,TemperatureAvgF,TemperatureLowF,DewpointHighF,DewpointAvgF,DewpointLowF,HumidityHigh,HumidityAvg,HumidityLow,PressureMaxIn,PressureMinIn,WindSpeedMaxMPH,WindSpeedAvgMPH,GustSpeedMaxMPH,PrecipitationSumIn
2013-1-1,28,22,11,-100,-100,-100,0,0,100,0.00,40.00,0,-999,0,0.00
2013-1-2,39,22,11,-100,-100,-100,0,0,100,0.00,40.00,0,-999,0,0.00
2013-1-3,36,31,21,-100,-100,-100,0,0,100,0.00,40.00,0,-999,0,0.00
2013-1-4,45,30,19,-100,-100,-100,0,0,100,0.00,40.00,0,-999,0,0.00
2013-1-5,47,39,32,-100,-100,-100,0,0,100,0.00,40.00,0,-999,0,0.00
2013-1-6,44,32,23,-100,-100,-100,0,0,100,0.00,40.00,0,-999,0,0.00
2013-1-7,50,38,32,-100,-100,-100,0,0,100,0.00,40.00,0,-999,0,0.00
2013-1-8,56,44,37,-100,-100,-100,0,0,100,0.00,40.00,0,-999,0,0.00
2013-1-9,54,38,27,-100,-100,-100,0,0,100,0.00,40.00,0,-999,0,0.00
2013-1-10,47,44,40,-100,-100,-100,0,0,100,0.00,40.00,0,-999,0,0.00
2013-1-11,57,53,45,-100,-100,-100,0,0,100,0.00,40.00,0,-999,0,0.00
2013-1-12,55,31,25,-100,-100,-100,0,0,100,0.00,40.00,0,-999,0,0.00
2013-1-13,28,20,15,-100,-100,-100,0,0,100,0.00,40.00,0,-999,0,0.00
2013-1-14,32,22,13,-100,-100,-100,0,0,100,0.00,40.00,0,-999,0,0.00
2013-1-15,39,24,15,-100,-100,-100,0,0,100,0.00,40.00,0,-999,0,0.00
2013-1-16,50,33,17,-100,-100,-100,0,0,100,0.00,40.00,0,-999,0,0.00
2013-1-17,51,35,25,-100,-100,-100,0,0,100,0.00,40.00,0,-999,0,0.00
2013-1-18,60,45,34,-100,-100,-100,0,0,100,0.00,40.00,0,-999,0,0.00
2013-1-19,62,48,40,-100,-100,-100,0,0,100,0.00,40.00,0,-999,0,0.00
2013-1-20,40,30,23,-100,-100,-100,0,0,100,0.00,40.00,0,-999,0,0.00
2013-1-21,23,20,18,-100,-100,-100,0,0,100,0.00,40.00,0,-999,0,0.00
2013-1-22,35,23,16,-100,-100,-100,0,0,100,0.00,40.00,0,-999,0,0.00
2013-1-23,47,27,15,-100,-100,-100,0,0,100,0.00,40.00,0,-999,0,0.00
2013-1-24,29,23,13,-100,-100,-100,0,0,100,0.00,40.00,0,-999,0,0.00
2013-1-25,49,32,21,-100,-100,-100,0,0,100,0.00,40.00,0,-999,0,0.00
2013-1-26,59,43,28,-100,-100,-100,0,0,100,0.00,40.00,0,-999,0,0.00
2013-1-27,61,50,43,-100,-100,-100,0,0,100,0.00,40.00,0,-999,0,0.00
2013-1-28,75,63,50,-100,-100,-100,0,0,100,0.00,40.00,0,-999,0,0.00
2013-1-29,69,48,37,-100,-100,-100,0,0,100,0.00,40.00,0,-999,0,0.00
2013-1-30,36,29,26,-100,-100,-100,0,0,100,0.00,40.00,0,-999,0,0.00
2013-1-31,24,18,13,-100,-100,-100,0,0,100,0.00,40.00,0,-999,0,0.00
2013-2-1,32,20,7,-100,-100,-100,0,0,100,0.00,40.00,0,-999,0,0.00
2013-2-2,51,38,29,-100,-100,-100,0,0,100,0.00,40.00,0,-999,0,0.00
2013-2-3,51,42,31,-100,-100,-100,0,0,100,0.00,40.00,0,-999,0,0.00
2013-2-4,48,38,27,-100,-100,-100,0,0,100,0.00,40.00,0,-999,0,0.00
2013-2-5,59,37,24,-100,-100,-100,0,0,100,0.00,40.00,0,-999,0,0.00
2013-2-6,64,46,28,-100,-100,-100,0,0,100,0.00,40.00,0,-999,0,0.00
2013-2-7,55,47,33,-100,-100,-100,0,0,100,0.00,40.00,0,-999,0,0.00
2013-2-8,49,37,31,-100,-100,-100,0,0,100,0.00,40.00,0,-999,0,0.00
2013-2-9,53,40,32,-100,-100,-100,0,0,100,0.00,40.00,0,-999,0,0.00
2013-2-10,52,46,40,-100,-100,-100,0,0,100,0.00,40.00,0,-999,0,0.00
2013-2-11,49,40,32,-100,-100,-100,0,0,100,0.00,40.00,0,-999,0,0.00
2013-2-12,48,35,23,-100,-100,-100,0,0,100,0.00,40.00,0,-999,0,0.00
2013-2-13,59,41,28,-100,-100,-100,0,0,100,0.00,40.00,0,-999,0,0.00
2013-2-14,51,41,31,-100,-100,-100,0,0,100,0.00,40.00,0,-999,0,0.00
2013-2-15,39,32,21,-100,-100,-100,0,0,100,0.00,40.00,0,-999,0,0.00
2013-2-16,38,31,17,-100,-100,-100,0,0,100,0.00,40.00,0,-999,0,0.00
2013-2-17,61,45,31,-100,-100,-100,0,0,100,0.00,40.00,0,-999,0,0.00
2013-2-18,54,45,30,-100,-100,-100,0,0,100,0.00,40.00,0,-999,0,0.00
2013-2-19,36,28,22,-100,-100,-100,0,0,100,0.00,40.00,0,-999,0,0.00
2013-2-20,28,23,18,-100,-100,-100,0,0,100,0.00,40.00,0,-999,0,0.00
2013-2-21,28,25,22,-100,-100,-100,0,0,100,0.00,40.00,0,-999,0,0.00
2013-2-22,29,25,19,-100,-100,-100,0,0,100,0.00,40.00,0,-999,0,0.00
2013-2-23,38,21,6,-100,-100,-100,0,0,100,0.00,40.00,0,-999,0,0.00
2013-2-24,48,30,13,-100,-100,-100,0,0,100,0.00,40.00,0,-999,0,0.00
2013-2-25,39,36,32,-100,-100,-100,0,0,100,0.00,40.00,0,-999,0,0.00
2013-2-26,35,34,32,-100,-100,-100,0,0,100,0.00,40.00,0,-999,0,0.00
2013-2-27,40,34,30,-100,-100,-100,0,0,100,0.00,40.00,0,-999,0,0.00
2013-2-28,36,32,31,-100,-100,-100,0,0,100,0.00,40.00,0,-999,0,0.00
2013-3-1,32,29,25,-100,-100,-100,0,0,100,0.00,40.00,0,-999,0,0.00
2013-3-2,45,30,24,-100,-100,-100,0,0,100,0.00,40.00,0,-999,0,0.00
2013-3-3,48,37,28,-100,-100,-100,0,0,100,0.00,40.00,0,-999,0,0.00
2013-3-4,57,42,38,-100,-100,-100,0,0,100,0.00,40.00,0,-999,0,0.00
2013-3-5,38,34,29,-100,-100,-100,0,0,100,0.00,40.00,0,-999,0,0.00
2013-3-6,43,33,25,-100,-100,-100,0,0,100,0.00,40.00,0,-999,0,0.00
2013-3-7,54,39,27,-100,-100,-100,0,0,100,0.00,40.00,0,-999,0,0.00
2013-3-8,59,48,37,-100,-100,-100,0,0,100,0.00,40.00,0,-999,0,0.00
2013-3-9,57,53,49,-100,-100,-100,0,0,100,0.00,40.00,0,-999,0,0.00
2013-3-10,58,41,31,-100,-100,-100,0,0,100,0.00,40.00,0,-999,0,0.00
2013-3-11,41,32,27,-100,-100,-100,0,0,100,0.00,40.00,0,-999,0,0.00
2013-3-12,48,38,32,-100,-100,-100,0,0,100,0.00,40.00,0,-999,0,0.00
2013-3-13,48,37,26,-100,-100,-100,0,0,100,0.00,40.00,0,-999,0,0.00
2013-3-14,73,52,36,-100,-100,-100,0,0,100,0.00,40.00,0,-999,0,0.00
2013-3-15,87,59,36,-100,-100,-100,0,0,100,0.00,40.00,0,-999,0,0.00
2013-3-16,58,44,37,-100,-100,-100,0,0,100,0.00,40.00,0,-999,0,0.00
2013-3-17,38,36,34,-100,-100,-100,0,0,100,0.00,40.00,0,-999,0,0.00
2013-3-18,54,43,36,-100,-100,-100,0,0,100,0.00,40.00,0,-999,0,0.00
2013-3-19,45,36,29,-100,-100,-100,0,0,100,0.00,40.00,0,-999,0,0.00
2013-3-20,41,33,25,-100,-100,-100,0,0,100,0.00,40.00,0,-999,0,0.00
2013-3-21,32,29,25,-100,-100,-100,0,0,100,0.00,40.00,0,-999,0,0.00
2013-3-22,36,32,29,-100,-100,-100,0,0,100,0.00,40.00,0,-999,0,0.00
2013-3-23,38,35,33,-100,-100,-100,0,0,100,0.00,40.00,0,-999,0,0.00
2013-3-24,34,30,28,-100,-100,-100,0,0,100,0.00,40.00,0,-999,0,0.00
2013-3-25,33,28,21,-100,-100,-100,0,0,100,0.00,40.00,0,-999,0,0.00
2013-3-26,43,32,25,-100,-100,-100,0,0,100,0.00,40.00,0,-999,0,0.00
2013-3-27,52,40,30,-100,-100,-100,0,0,100,0.00,40.00,0,-999,0,0.00
2013-3-28,65,50,36,-100,-100,-100,0,0,100,0.00,40.00,0,-999,0,0.00
2013-3-29,72,58,43,-100,-100,-100,0,0,100,0.00,40.00,0,-999,0,0.00
2013-3-30,69,59,53,-100,-100,-100,0,0,100,0.00,40.00,0,-999,0,0.00
2013-3-31,63,55,48,-100,-100,-100,0,0,100,0.00,40.00,0,-999,0,0.00
2013-4-1,51,42,34,-100,-100,-100,0,0,100,0.00,40.00,0,-999,0,0.00
2013-4-2,51,41,33,-100,-100,-100,0,0,100,0.00,40.00,0,-999,0,0.00
2013-4-3,51,43,30,-100,-100,-100,0,0,100,0.00,40.00,0,-999,0,0.00
2013-4-4,63,48,33,-100,-100,-100,0,0,100,0.00,40.00,0,-999,0,0.00
2013-4-5,69,44,36,-100,-100,-100,0,0,100,0.00,40.00,0,-999,0,0.00
2013-4-6,79,65,57,-100,-100,-100,0,0,100,0.00,40.00,0,-999,0,0.00
2013-4-7,74,59,42,-100,-100,-100,0,0,100,0.00,40.00,0,-999,0,0.00
2013-4-8,73,64,55,-100,-100,-100,0,0,100,0.00,40.00,0,-999,0,0.00
2013-4-9,76,67,51,-100,-100,-100,0,0,100,0.00,40.00,0,-999,0,0.00
2013-4-10,48,42,37,-100,-100,-100,0,0,100,0.00,40.00,0,-999,0,0.00
2013-4-11,42,38,36,-100,-100,-100,0,0,100,0.00,40.00,0,-999,0,0.00
2013-4-12,54,40,33,-100,-100,-100,0,0,100,0.00,40.00,0,-999,0,0.00
2013-4-13,69,50,33,-100,-100,-100,0,0,100,0.00,40.00,0,-999,0,0.00
2013-4-14,77,63,57,-100,-100,-100,0,0,100,0.00,40.00,0,-999,0,0.00
2013-4-15,55,50,47,-100,-100,-100,0,0,100,0.00,40.00,0,-999,0,0.00
2013-4-16,47,44,42,-100,-100,-100,0,0,100,0.00,40.00,0,-999,0,0.00
2013-4-17,51,48,46,-100,-100,-100,0,0,100,0.00,40.00,0,-999,0,0.00
2013-4-18,46,40,38,-100,-100,-100,0,0,100,0.00,40.00,0,-999,0,0.00
2013-4-19,52,43,36,-100,-100,-100,0,0,100,0.00,40.00,0,-999,0,0.00
2013-4-20,62,46,31,-100,-100,-100,0,0,100,0.00,40.00,0,-999,0,0.00
2013-4-21,69,56,47,-100,-100,-100,0,0,100,0.00,40.00,0,-999,0,0.00
2013-4-22,67,58,50,-100,-100,-100,0,0,100,0.00,40.00,0,-999,0,0.00
2013-4-23,53,37,33,-100,-100,-100,0,0,100,0.00,40.00,0,-999,0,0.00
2013-4-24,59,44,32,-100,-100,-100,0,0,100,0.00,40.00,0,-999,0,0.00
2013-4-25,73,55,34,-100,-100,-100,0,0,100,0.00,40.00,0,-999,0,0.00
2013-4-26,56,53,51,-100,-100,-100,0,0,100,0.00,40.00,0,-999,0,0.00
2013-4-27,59,52,48,-100,-100,-100,0,0,100,0.00,40.00,0,-999,0,0.00
2013-4-28,77,58,40,-100,-100,-100,0,0,100,0.00,40.00,0,-999,0,0.00
2013-4-29,87,68,58,-100,-100,-100,0,0,100,0.00,40.00,0,-999,0,0.00
2013-4-30,87,79,67,-100,-100,-100,0,0,100,0.00,40.00,0,-999,0,0.00
2013-5-1,76,64,47,-100,-100,-100,0,0,100,0.00,40.00,0,-999,0,0.00
2013-5-2,42,38,36,-100,-100,-100,0,0,100,0.00,40.00,0,-999,0,0.00
2013-5-3,44,41,39,-100,-100,-100,0,0,100,0.00,40.00,0,-999,0,0.00
2013-5-4,49,42,36,-100,-100,-100,0,0,100,0.00,40.00,0,-999,0,0.00
2013-5-5,53,48,46,-100,-100,-100,0,0,100,0.00,40.00,0,-999,0,0.00
2013-5-6,65,57,51,-100,-100,-100,0,0,100,0.00,40.00,0,-999,0,0.00
2013-5-7,82,62,47,-100,-100,-100,0,0,100,0.00,40.00,0,-999,0,0.00
2013-5-8,76,67,57,-100,-100,-100,0,0,100,0.00,40.00,0,-999,0,0.00
2013-5-9,75,65,60,-100,-100,-100,0,0,100,0.00,40.00,0,-999,0,0.00
2013-5-10,65,60,54,-100,-100,-100,0,0,100,0.00,40.00,0,-999,0,0.00
2013-5-11,65,56,49,-100,-100,-100,0,0,100,0.00,40.00,0,-999,0,0.00
2013-5-12,69,54,37,-100,-100,-100,0,0,100,0.00,40.00,0,-999,0,0.00
2013-5-13,84,65,47,-100,-100,-100,0,0,100,0.00,40.00,0,-999,0,0.00
2013-5-14,98,81,67,-100,-100,-100,0,0,100,0.00,40.00,0,-999,0,0.00
2013-5-15,93,78,69,-100,-100,-100,0,0,100,0.00,40.00,0,-999,0,0.00
2013-5-16,84,74,64,-100,-100,-100,0,0,100,0.00,40.00,0,-999,0,0.00
2013-5-17,85,71,62,-100,-100,-100,0,0,100,0.00,40.00,0,-999,0,0.00
2013-5-18,87,75,62,-100,-100,-100,0,0,100,0.00,40.00,0,-999,0,0.00
2013-5-19,83,72,63,-100,-100,-100,0,0,100,0.00,40.00,0,-999,0,0.00
2013-5-20,87,72,62,-100,-100,-100,0,0,100,0.00,40.00,0,-999,0,0.00
2013-5-21,80,68,59,-100,-100,-100,0,0,100,0.00,40.00,0,-999,0,0.00
2013-5-22,69,62,55,-100,-100,-100,0,0,100,0.00,40.00,0,-999,0,0.00
2013-5-23,67,61,54,-100,-100,-100,0,0,100,0.00,40.00,0,-999,0,0.00
2013-5-24,78,64,50,-100,-100,-100,0,0,100,0.00,40.00,0,-999,0,0.00
2013-5-25,89,75,65,-100,-100,-100,0,0,100,0.00,40.00,0,-999,0,0.00
2013-5-26,88,78,71,-100,-100,-100,0,0,100,0.00,40.00,0,-999,0,0.00
2013-5-27,79,71,62,-100,-100,-100,0,0,100,0.00,40.00,0,-999,0,0.00
2013-5-28,83,77,74,-100,-100,-100,0,0,100,0.00,40.00,0,-999,0,0.00
2013-5-29,80,75,67,-100,-100,-100,0,0,100,0.00,40.00,0,-999,0,0.00
2013-5-30,81,70,62,-100,-100,-100,0,0,100,0.00,40.00,0,-999,0,0.00
2013-5-31,81,70,63,-100,-100,-100,0,0,100,0.00,40.00,0,-999,0,0.00
2013-6-1,78,67,62,-100,-100,-100,0,0,100,0.00,40.00,0,-999,0,0.00
2013-6-2,66,60,55,-100,-100,-100,0,0,100,0.00,40.00,0,-999,0,0.00
2013-6-3,80,64,47,-100,-100,-100,0,0,100,0.00,40.00,0,-999,0,0.00
2013-6-4,82,71,64,-100,-100,-100,0,0,100,0.00,40.00,0,-999,0,0.00
2013-6-5,69,66,64,-100,-100,-100,0,0,100,0.00,40.00,0,-999,0,0.00
2013-6-6,74,67,60,-100,-100,-100,0,0,100,0.00,40.00,0,-999,0,0.00
2013-6-7,75,64,54,-100,-100,-100,0,0,100,0.00,40.00,0,-999,0,0.00
2013-6-8,86,70,56,-100,-100,-100,0,0,100,0.00,40.00,0,-999,0,0.00
2013-6-9,80,72,65,-100,-100,-100,0,0,100,0.00,40.00,0,-999,0,0.00
2013-6-10,93,75,59,-100,-100,-100,0,0,100,0.00,40.00,0,-999,0,0.00
2013-6-11,102,84,74,-100,-100,-100,0,0,100,0.00,40.00,0,-999,0,0.00
2013-6-12,98,87,78,-100,-100,-100,0,0,100,0.00,40.00,0,-999,0,0.00
2013-6-13,83,74,64,-100,-100,-100,0,0,100,0.00,40.00,0,-999,0,0.00
2013-6-14,96,81,66,-100,-100,-100,0,0,100,0.00,40.00,0,-999,0,0.00
2013-6-15,94,80,71,-100,-100,-100,0,0,100,0.00,40.00,0,-999,0,0.00
2013-6-16,81,75,69,-100,-100,-100,0,0,100,0.00,40.00,0,-999,0,0.00
2013-6-17,87,75,69,-100,-100,-100,0,0,100,0.00,40.00,0,-999,0,0.00
2013-6-18,85,74,65,-100,-100,-100,0,0,100,0.00,40.00,0,-999,0,0.00
2013-6-19,93,78,65,-100,-100,-100,0,0,100,0.00,40.00,0,-999,0,0.00
2013-6-20,94,79,71,-100,-100,-100,0,0,100,0.00,40.00,0,-999,0,0.00
2013-6-22,98,90,82,-100,-100,-100,0,0,100,0.00,40.00,0,-999,0,0.00
2013-6-23,94,83,77,-100,-100,-100,0,0,100,0.00,40.00,0,-999,0,0.00
2013-6-24,95,86,78,-100,-100,-100,0,0,100,0.00,40.00,0,-999,0,0.00
2013-6-25,93,83,75,-100,-100,-100,0,0,100,0.00,40.00,0,-999,0,0.00
2013-6-26,94,85,76,-100,-100,-100,0,0,100,0.00,40.00,0,-999,0,0.00
2013-6-27,86,76,69,-100,-100,-100,0,0,100,0.00,40.00,0,-999,0,0.00
2013-6-28,86,78,69,-100,-100,-100,0,0,100,0.00,40.00,0,-999,0,0.00
2013-6-29,83,74,65,-100,-100,-100,0,0,100,0.00,40.00,0,-999,0,0.00
2013-6-30,77,70,62,-100,-100,-100,0,0,100,0.00,40.00,0,-999,0,0.00
2013-7-1,80,70,59,-100,-100,-100,0,0,100,0.00,40.00,0,-999,0,0.00
2013-7-2,83,71,58,-100,-100,-100,0,0,100,0.00,40.00,0,-999,0,0.00
2013-7-3,94,72,59,-100,-100,-100,0,0,100,0.00,40.00,0,-999,0,0.00
2013-7-4,94,76,58,-100,-100,-100,0,0,100,0.00,40.00,0,-999,0,0.00
2013-7-5,97,83,68,-100,-100,-100,0,0,100,0.00,40.00,0,-999,0,0.00
2013-7-6,90,77,72,-100,-100,-100,0,0,100,0.00,40.00,0,-999,0,0.00
2013-7-7,95,84,73,-100,-100,-100,0,0,100,0.00,40.00,0,-999,0,0.00
2013-7-8,102,85,80,-100,-100,-100,0,0,100,0.00,40.00,0,-999,0,0.00
2013-7-9,107,91,80,-100,-100,-100,0,0,100,0.00,40.00,0,-999,0,0.00
2013-7-10,91,84,74,-100,-100,-100,0,0,100,0.00,40.00,0,-999,0,0.00
2013-7-11,94,80,69,-100,-100,-100,0,0,100,0.00,40.00,0,-999,0,0.00
2013-7-12,99,82,68,-100,-100,-100,0,0,100,0.00,40.00,0,-999,0,0.00
2013-7-13,94,82,72,-100,-100,-100,0,0,100,0.00,40.00,0,-999,0,0.00
2013-7-14,93,80,68,-100,-100,-100,0,0,100,0.00,40.00,0,-999,0,0.00
2013-7-15,94,79,69,-100,-100,-100,0,0,100,0.00,40.00,0,-999,0,0.00
2013-7-16,100,82,70,-100,-100,-100,0,0,100,0.00,40.00,0,-999,0,0.00
2013-7-17,102,84,73,-100,-100,-100,0,0,100,0.00,40.00,0,-999,0,0.00
2013-7-18,103,89,70,-100,-100,-100,0,0,100,0.00,40.00,0,-999,0,0.00
2013-7-19,105,85,71,-100,-100,-100,0,0,100,0.00,40.00,0,-999,0,0.00
2013-7-20,91,77,73,-100,-100,-100,0,0,100,0.00,40.00,0,-999,0,0.00
2013-7-21,92,79,71,-100,-100,-100,0,0,100,0.00,40.00,0,-999,0,0.00
2013-7-22,98,82,69,-100,-100,-100,0,0,100,0.00,40.00,0,-999,0,0.00
2013-7-23,86,78,71,-100,-100,-100,0,0,100,0.00,40.00,0,-999,0,0.00
2013-7-24,87,76,64,-100,-100,-100,0,0,100,0.00,40.00,0,-999,0,0.00
2013-7-25,86,74,64,-100,-100,-100,0,0,100,0.00,40.00,0,-999,0,0.00
2013-7-26,85,76,69,-100,-100,-100,0,0,100,0.00,40.00,0,-999,0,0.00
2013-7-27,76,68,55,-100,-100,-100,0,0,100,0.00,40.00,0,-999,0,0.00
2013-7-28,80,68,59,-100,-100,-100,0,0,100,0.00,40.00,0,-999,0,0.00
2013-7-29,71,66,61,-100,-100,-100,0,0,100,0.00,40.00,0,-999,0,0.00
2013-7-30,80,75,70,-100,-100,-100,0,0,100,0.00,40.00,0,-999,0,0.00
2013-7-31,87,77,70,-100,-100,-100,0,0,100,0.00,40.00,0,-999,0,0.00
2013-8-1,94,79,65,-100,-100,-100,0,0,100,0.00,40.00,0,-999,0,0.00
2013-8-2,86,75,65,-100,-100,-100,0,0,100,0.00,40.00,0,-999,0,0.00
2013-8-3,84,78,73,-100,-100,-100,0,0,100,0.00,40.00,0,-999,0,0.00
2013-8-4,78,72,68,-100,-100,-100,0,0,100,0.00,40.00,0,-999,0,0.00
2013-8-5,91,77,71,-100,-100,-100,0,0,100,0.00,40.00,0,-999,0,0.00
2013-8-6,91,81,73,-100,-100,-100,0,0,100,0.00,40.00,0,-999,0,0.00
2013-8-7,91,79,72,-100,-100,-100,0,0,100,0.00,40.00,0,-999,0,0.00
2013-8-8,75,72,69,-100,-100,-100,0,0,100,0.00,40.00,0,-999,0,0.00
2013-8-9,78,73,69,-100,-100,-100,0,0,100,0.00,40.00,0,-999,0,0.00
2013-8-10,85,73,63,-100,-100,-100,0,0,100,0.00,40.00,0,-999,0,0.00
2013-8-11,94,74,62,-100,-100,-100,0,0,100,0.00,40.00,0,-999,0,0.00
2013-8-12,85,74,66,-100,-100,-100,0,0,100,0.00,40.00,0,-999,0,0.00
2013-8-13,80,73,68,-100,-100,-100,0,0,100,0.00,40.00,0,-999,0,0.00
2013-8-14,86,71,62,-100,-100,-100,0,0,100,0.00,40.00,0,-999,0,0.00
2013-8-15,74,68,65,-100,-100,-100,0,0,100,0.00,40.00,0,-999,0,0.00
2013-8-16,80,70,63,-100,-100,-100,0,0,100,0.00,40.00,0,-999,0,0.00
2013-8-17,83,70,54,-100,-100,-100,0,0,100,0.00,40.00,0,-999,0,0.00
2013-8-18,88,70,56,-100,-100,-100,0,0,100,0.00,40.00,0,-999,0,0.00
2013-8-19,91,74,61,-100,-100,-100,0,0,100,0.00,40.00,0,-999,0,0.00
2013-8-20,94,80,65,-100,-100,-100,0,0,100,0.00,40.00,0,-999,0,0.00
2013-8-21,97,80,67,-100,-100,-100,0,0,100,0.00,40.00,0,-999,0,0.00
2013-8-22,93,78,69,-100,-100,-100,0,0,100,0.00,40.00,0,-999,0,0.00
2013-8-23,98,82,69,-100,-100,-100,0,0,100,0.00,40.00,0,-999,0,0.00
2013-8-24,95,84,73,-100,-100,-100,0,0,100,0.00,40.00,0,-999,0,0.00
2013-8-25,98,84,73,-100,-100,-100,0,0,100,0.00,40.00,0,-999,0,0.00
2013-8-26,100,85,73,-100,-100,-100,0,0,100,0.00,40.00,0,-999,0,0.00
2013-8-27,96,83,76,-100,-100,-100,0,0,100,0.00,40.00,0,-999,0,0.00
2013-8-28,98,92,76,-100,-100,-100,0,0,100,0.00,40.00,0,-999,0,0.00
2013-8-29,100,85,73,-100,-100,-100,0,0,100,0.00,40.00,0,-999,0,0.00
2013-8-30,107,89,78,-100,-100,-100,0,0,100,0.00,40.00,0,-999,0,0.00
2013-8-31,100,83,76,-100,-100,-100,0,0,100,0.00,40.00,0,-999,0,0.00
2013-9-1,87,77,70,-100,-100,-100,0,0,100,0.00,40.00,0,-999,0,0.00
2013-9-2,82,72,64,-100,-100,-100,0,0,100,0.00,40.00,0,-999,0,0.00
2013-9-3,89,72,56,-100,-100,-100,0,0,100,0.00,40.00,0,-999,0,0.00
2013-9-4,87,73,58,-100,-100,-100,0,0,100,0.00,40.00,0,-999,0,0.00
2013-9-5,89,76,62,-100,-100,-100,0,0,100,0.00,40.00,0,-999,0,0.00
2013-9-6,97,79,67,-100,-100,-100,0,0,100,0.00,40.00,0,-999,0,0.00
2013-9-7,104,86,70,-100,-100,-100,0,0,100,0.00,40.00,0,-999,0,0.00
2013-9-8,109,90,73,-100,-100,-100,0,0,100,0.00,40.00,0,-999,0,0.00
2013-9-9,101,88,73,-100,-100,-100,0,0,100,0.00,40.00,0,-999,0,0.00
2013-9-10,100,84,69,-100,-100,-100,0,0,100,0.00,40.00,0,-999,0,0.00
2013-9-11,102,82,67,-100,-100,-100,0,0,100,0.00,40.00,0,-999,0,0.00
2013-9-12,86,78,71,-100,-100,-100,0,0,100,0.00,40.00,0,-999,0,0.00
2013-9-13,77,68,56,-100,-100,-100,0,0,100,0.00,40.00,0,-999,0,0.00
2013-9-14,84,67,51,-100,-100,-100,0,0,100,0.00,40.00,0,-999,0,0.00
2013-9-15,92,73,65,-100,-100,-100,0,0,100,0.00,40.00,0,-999,0,0.00
2013-9-16,65,61,60,-100,-100,-100,0,0,100,0.00,40.00,0,-999,0,0.00
2013-9-17,80,68,62,-100,-100,-100,0,0,100,0.00,40.00,0,-999,0,0.00
2013-9-18,79,70,67,-100,-100,-100,0,0,100,0.00,40.00,0,-999,0,0.00
2013-9-19,96,79,68,-100,-100,-100,0,0,100,0.00,40.00,0,-999,0,0.00
2013-9-20,73,65,58,-100,-100,-100,0,0,100,0.00,40.00,0,-999,0,0.00
2013-9-21,83,63,51,-100,-100,-100,0,0,100,0.00,40.00,0,-999,0,0.00
2013-9-22,83,65,52,-100,-100,-100,0,0,100,0.00,40.00,0,-999,0,0.00
2013-9-23,81,68,55,-100,-100,-100,0,0,100,0.00,40.00,0,-999,0,0.00
2013-9-24,72,67,62,-100,-100,-100,0,0,100,0.00,40.00,0,-999,0,0.00
2013-9-25,85,66,56,-100,-100,-100,0,0,100,0.00,40.00,0,-999,0,0.00
2013-9-26,93,76,62,-100,-100,-100,0,0,100,0.00,40.00,0,-999,0,0.00
2013-9-27,91,78,68,-100,-100,-100,0,0,100,0.00,40.00,0,-999,0,0.00
2013-9-28,75,67,58,-100,-100,-100,0,0,100,0.00,40.00,0,-999,0,0.00
2013-9-29,80,62,45,-100,-100,-100,0,0,100,0.00,40.00,0,-999,0,0.00
2013-9-30,84,65,48,-100,-100,-100,0,0,100,0.00,40.00,0,-999,0,0.00
2013-10-1,85,73,66,-100,-100,-100,0,0,100,0.00,40.00,0,-999,0,0.00
2013-10-2,87,71,60,-100,-100,-100,0,0,100,0.00,40.00,0,-999,0,0.00
2013-10-3,87,74,63,-100,-100,-100,0,0,100,0.00,40.00,0,-999,0,0.00
2013-10-4,91,78,68,-100,-100,-100,0,0,100,0.00,40.00,0,-999,0,0.00
2013-10-5,63,56,49,-100,-100,-100,0,0,100,0.00,40.00,0,-999,0,0.00
2013-10-6,62,53,47,-100,-100,-100,0,0,100,0.00,40.00,0,-999,0,0.00
2013-10-7,78,56,42,-100,-100,-100,0,0,100,0.00,40.00,0,-999,0,0.00
2013-10-8,77,61,48,-100,-100,-100,0,0,100,0.00,40.00,0,-999,0,0.00
2013-10-9,80,65,53,-100,-100,-100,0,0,100,0.00,40.00,0,-999,0,0.00
2013-10-10,82,64,51,-100,-100,-100,0,0,100,0.00,40.00,0,-999,0,0.00
2013-10-11,79,69,59,-100,-100,-100,0,0,100,0.00,40.00,0,-999,0,0.00
2013-10-12,70,60,50,-100,-100,-100,0,0,100,0.00,40.00,0,-999,0,0.00
2013-10-13,70,56,42,-100,-100,-100,0,0,100,0.00,40.00,0,-999,0,0.00
2013-10-14,73,60,54,-100,-100,-100,0,0,100,0.00,40.00,0,-999,0,0.00
2013-10-15,64,56,49,-100,-100,-100,0,0,100,0.00,40.00,0,-999,0,0.00
2013-10-16,58,52,44,-100,-100,-100,0,0,100,0.00,40.00,0,-999,0,0.00
2013-10-17,68,55,40,-100,-100,-100,0,0,100,0.00,40.00,0,-999,0,0.00
2013-10-18,51,42,40,-100,-100,-100,0,0,100,0.00,40.00,0,-999,0,0.00
2013-10-19,65,48,35,-100,-100,-100,0,0,100,0.00,40.00,0,-999,0,0.00
2013-10-20,74,58,47,-100,-100,-100,0,0,100,0.00,40.00,0,-999,0,0.00
2013-10-21,60,51,42,-100,-100,-100,0,0,100,0.00,40.00,0,-999,0,0.00
2013-10-22,61,52,43,-100,-100,-100,0,0,100,0.00,40.00,0,-999,0,0.00
2013-10-23,58,44,34,-100,-100,-100,0,0,100,0.00,40.00,0,-999,0,0.00
2013-10-24,51,43,34,-100,-100,-100,0,0,100,0.00,40.00,0,-999,0,0.00
2013-10-25,60,44,27,-100,-100,-100,0,0,100,0.00,40.00,0,-999,0,0.00
2013-10-26,60,51,43,-100,-100,-100,0,0,100,0.00,40.00,0,-999,0,0.00
2013-10-27,65,45,29,-100,-100,-100,0,0,100,0.00,40.00,0,-999,0,0.00
2013-10-28,68,50,35,-100,-100,-100,0,0,100,0.00,40.00,0,-999,0,0.00
2013-10-29,64,58,53,-100,-100,-100,0,0,100,0.00,40.00,0,-999,0,0.00
2013-10-30,72,65,62,-100,-100,-100,0,0,100,0.00,40.00,0,-999,0,0.00
2013-10-31,60,52,47,-100,-100,-100,0,0,100,0.00,40.00,0,-999,0,0.00
2013-11-1,61,50,43,-100,-100,-100,0,0,100,0.00,40.00,0,-999,0,0.00
2013-11-2,58,48,40,-100,-100,-100,0,0,100,0.00,40.00,0,-999,0,0.00
2013-11-3,58,49,36,-100,-100,-100,0,0,100,0.00,40.00,0,-999,0,0.00
2013-11-4,63,57,51,-100,-100,-100,0,0,100,0.00,40.00,0,-999,0,0.00
2013-11-5,62,59,57,-100,-100,-100,0,0,100,0.00,40.00,0,-999,0,0.00
2013-11-6,47,42,39,-100,-100,-100,0,0,100,0.00,40.00,0,-999,0,0.00
2013-11-7,56,42,33,-100,-100,-100,0,0,100,0.00,40.00,0,-999,0,0.00
2013-11-8,66,51,33,-100,-100,-100,0,0,100,0.00,40.00,0,-999,0,0.00
2013-11-9,66,54,40,-100,-100,-100,0,0,100,0.00,40.00,0,-999,0,0.00
2013-11-10,60,50,41,-100,-100,-100,0,0,100,0.00,40.00,0,-999,0,0.00
2013-11-11,61,48,29,-100,-100,-100,0,0,100,0.00,40.00,0,-999,0,0.00
2013-11-12,36,27,19,-100,-100,-100,0,0,100,0.00,40.00,0,-999,0,0.00
2013-11-13,51,34,21,-100,-100,-100,0,0,100,0.00,40.00,0,-999,0,0.00
2013-11-14,59,47,40,-100,-100,-100,0,0,100,0.00,40.00,0,-999,0,0.00
2013-11-15,57,51,38,-100,-100,-100,0,0,100,0.00,40.00,0,-999,0,0.00
2013-11-16,72,63,53,-100,-100,-100,0,0,100,0.00,40.00,0,-999,0,0.00
2013-11-17,67,60,49,-100,-100,-100,0,0,100,0.00,40.00,0,-999,0,0.00
2013-11-18,60,44,34,-100,-100,-100,0,0,100,0.00,40.00,0,-999,0,0.00
2013-11-19,63,48,32,-100,-100,-100,0,0,100,0.00,40.00,0,-999,0,0.00
2013-11-20,54,50,47,-100,-100,-100,0,0,100,0.00,40.00,0,-999,0,0.00
2013-11-21,50,41,29,-100,-100,-100,0,0,100,0.00,40.00,0,-999,0,0.00
2013-11-22,29,28,25,-100,-100,-100,0,0,100,0.00,40.00,0,-999,0,0.00
2013-11-23,29,26,19,-100,-100,-100,0,0,100,0.00,40.00,0,-999,0,0.00
2013-11-24,30,24,16,-100,-100,-100,0,0,100,0.00,40.00,0,-999,0,0.00
2013-11-25,45,35,30,-100,-100,-100,0,0,100,0.00,40.00,0,-999,0,0.00
2013-11-26,37,30,24,-100,-100,-100,0,0,100,0.00,40.00,0,-999,0,0.00
2013-11-27,39,28,18,-100,-100,-100,0,0,100,0.00,40.00,0,-999,0,0.00
2013-11-28,36,31,25,-100,-100,-100,0,0,100,0.00,40.00,0,-999,0,0.00
2013-11-29,54,33,23,-100,-100,-100,0,0,100,0.00,40.00,0,-999,0,0.00
2013-11-30,59,44,35,-100,-100,-100,0,0,100,0.00,40.00,0,-999,0,0.00
2013-12-1,60,41,29,-100,-100,-100,0,0,100,0.00,40.00,0,-999,0,0.00
2013-12-2,55,46,35,-100,-100,-100,0,0,100,0.00,40.00,0,-999,0,0.00
2013-12-3,63,47,39,-100,-100,-100,0,0,100,0.00,40.00,0,-999,0,0.00
2013-12-4,43,34,25,-100,-100,-100,0,0,100,0.00,40.00,0,-999,0,0.00
2013-12-5,24,20,17,-100,-100,-100,0,0,100,0.00,40.00,0,-999,0,0.00
2013-12-6,19,16,12,-100,-100,-100,0,0,100,0.00,40.00,0,-999,0,0.00
2013-12-7,22,14,5,-100,-100,-100,0,0,100,0.00,40.00,0,-999,0,0.00
2013-12-8,29,24,18,-100,-100,-100,0,0,100,0.00,40.00,0,-999,0,0.00
2013-12-9,20,14,8,-100,-100,-100,0,0,100,0.00,40.00,0,-999,0,0.00
2013-12-10,43,27,11,-100,-100,-100,0,0,100,0.00,40.00,0,-999,0,0.00
2013-12-11,29,22,12,-100,-100,-100,0,0,100,0.00,40.00,0,-999,0,0.00
2013-12-12,50,31,14,-100,-100,-100,0,0,100,0.00,40.00,0,-999,0,0.00
2013-12-13,41,36,30,-100,-100,-100,0,0,100,0.00,40.00,0,-999,0,0.00
2013-12-14,36,28,21,-100,-100,-100,0,0,100,0.00,40.00,0,-999,0,0.00
2013-12-15,54,34,18,-100,-100,-100,0,0,100,0.00,40.00,0,-999,0,0.00
2013-12-16,60,40,27,-100,-100,-100,0,0,100,0.00,40.00,0,-999,0,0.00
2013-12-17,48,34,23,-100,-100,-100,0,0,100,0.00,40.00,0,-999,0,0.00
2013-12-18,66,46,25,-100,-100,-100,0,0,100,0.00,40.00,0,-999,0,0.00
2013-12-19,58,53,42,-100,-100,-100,0,0,100,0.00,40.00,0,-999,0,0.00
2013-12-20,42,26,21,-100,-100,-100,0,0,100,0.00,40.00,0,-999,0,0.00
2013-12-21,29,26,23,-100,-100,-100,0,0,100,0.00,40.00,0,-999,0,0.00
2013-12-22,26,22,7,-100,-100,-100,0,0,100,0.00,40.00,0,-999,0,0.00
2013-12-23,16,10,4,-100,-100,-100,0,0,100,0.00,40.00,0,-999,0,0.00
2013-12-24,33,20,4,-100,-100,-100,0,0,100,0.00,40.00,0,-999,0,0.00
2013-12-25,42,32,24,-100,-100,-100,0,0,100,0.00,40.00,0,-999,0,0.00
2013-12-26,48,31,16,-100,-100,-100,0,0,100,0.00,40.00,0,-999,0,0.00
2013-12-27,56,37,23,-100,-100,-100,0,0,100,0.00,40.00,0,-999,0,0.00
2013-12-28,56,44,36,-100,-100,-100,0,0,100,0.00,40.00,0,-999,0,0.00
2013-12-29,40,21,13,-100,-100,-100,0,0,100,0.00,40.00,0,-999,0,0.00
2013-12-30,36,22,10,-100,-100,-100,0,0,100,0.00,40.00,0,-999,0,0.00
2013-12-31,54,34,18,-100,-100,-100,0,0,100,0.00,40.00,0,-999,0,0.00
2014-1-1,41,22,12,-100,-100,-100,0,0,100,0.00,40.00,0,-999,0,0.00
2014-1-2,19,11,6,-100,-100,-100,0,0,100,0.00,40.00,0,-999,0,0.00